createdAt,value
2017-11-29T00:01:46.821Z,10.87
2017-11-29T00:04:14.323Z,11.10
2017-11-29T00:06:41.826Z,11.93
2017-11-29T00:09:09.310Z,11.93
2017-11-29T00:11:37.565Z,12.10
2017-11-29T00:14:05.074Z,12.73
2017-11-29T00:16:32.589Z,13.10
2017-11-29T00:19:00.911Z,13.83
2017-11-29T00:21:28.406Z,14.03
2017-11-29T00:23:55.885Z,14.90
2017-11-29T00:26:23.424Z,14.70
2017-11-29T00:28:50.910Z,14.73
2017-11-29T00:31:18.375Z,13.87
2017-11-29T00:33:46.663Z,15.87
2017-11-29T00:36:14.913Z,15.93
2017-11-29T00:38:42.420Z,16.87
2017-11-29T00:41:09.892Z,15.20
2017-11-29T00:43:37.388Z,15.63
2017-11-29T00:46:05.709Z,17.90
2017-11-29T00:48:33.204Z,16.47
2017-11-29T00:51:00.701Z,17.13
2017-11-29T00:53:28.181Z,17.90
2017-11-29T00:55:56.472Z,17.10
2017-11-29T00:58:23.951Z,17.60
2017-11-29T01:00:51.476Z,17.33
2017-11-29T01:03:18.968Z,17.30
2017-11-29T01:05:46.483Z,18.00
2017-11-29T01:08:14.722Z,17.40
2017-11-29T01:10:42.215Z,18.00
2017-11-29T01:13:09.725Z,18.83
2017-11-29T01:15:37.229Z,17.47
2017-11-29T01:18:04.705Z,17.50
2017-11-29T01:20:32.947Z,18.80
2017-11-29T01:23:00.465Z,20.10
2017-11-29T01:25:27.961Z,16.50
2017-11-29T01:27:55.481Z,19.70
2017-11-29T01:30:22.953Z,17.40
2017-11-29T01:32:50.444Z,21.93
2017-11-29T01:35:17.928Z,21.40
2017-11-29T01:37:46.204Z,20.40
2017-11-29T01:40:14.543Z,19.43
2017-11-29T01:42:42.071Z,23.13
2017-11-29T01:45:09.570Z,23.10
2017-11-29T01:47:37.080Z,22.03
2017-11-29T01:50:04.556Z,21.30
2017-11-29T01:52:32.028Z,20.97
2017-11-29T01:54:59.512Z,23.53
2017-11-29T01:57:27.017Z,25.53
2017-11-29T01:59:54.488Z,25.60
2017-11-29T02:02:21.957Z,25.00
2017-11-29T02:04:49.436Z,24.93
2017-11-29T02:07:16.911Z,26.43
2017-11-29T02:09:44.407Z,25.60
2017-11-29T02:12:11.915Z,28.73
2017-11-29T02:14:39.415Z,27.43
2017-11-29T02:17:07.662Z,28.20
2017-11-29T02:19:35.135Z,29.33
2017-11-29T02:22:02.638Z,30.63
2017-11-29T02:24:30.151Z,31.33
2017-11-29T02:26:58.430Z,33.50
2017-11-29T02:29:26.694Z,30.93
2017-11-29T02:31:54.180Z,28.10
2017-11-29T02:34:22.488Z,29.50
2017-11-29T02:36:50.049Z,29.37
2017-11-29T02:39:17.554Z,29.77
2017-11-29T02:41:56.989Z,30.13
2017-11-29T02:44:24.476Z,30.00
2017-11-29T02:46:52.762Z,31.80
2017-11-29T02:49:20.267Z,31.53
2017-11-29T02:51:47.758Z,34.27
2017-11-29T02:54:15.257Z,35.63
2017-11-29T02:56:42.764Z,38.33
2017-11-29T02:59:10.253Z,34.83
2017-11-29T03:01:38.500Z,35.90
2017-11-29T03:04:05.999Z,36.73
2017-11-29T03:06:33.496Z,37.57
2017-11-29T03:09:01.026Z,33.07
2017-11-29T03:11:28.514Z,38.23
2017-11-29T03:13:56.015Z,33.30
2017-11-29T03:16:24.256Z,33.17
2017-11-29T03:18:51.752Z,34.60
2017-11-29T03:21:20.431Z,39.70
2017-11-29T03:23:48.677Z,39.53
2017-11-29T03:26:16.160Z,36.10
2017-11-29T03:28:43.650Z,33.87
2017-11-29T03:31:11.175Z,36.70
2017-11-29T03:33:38.700Z,35.60
2017-11-29T03:36:06.194Z,34.30
2017-11-29T03:38:33.668Z,31.70
2017-11-29T03:41:01.916Z,34.77
2017-11-29T03:43:30.899Z,33.20
2017-11-29T03:45:58.364Z,33.07
2017-11-29T03:48:25.877Z,35.23
2017-11-29T03:50:53.356Z,30.57
2017-11-29T03:53:20.906Z,35.13
2017-11-29T03:55:48.403Z,33.43
2017-11-29T03:58:15.982Z,34.67
2017-11-29T04:00:44.229Z,34.67
2017-11-29T04:03:11.718Z,30.10
2017-11-29T04:05:39.201Z,37.63
2017-11-29T04:08:06.697Z,34.40
2017-11-29T04:10:34.224Z,37.53
2017-11-29T04:13:01.787Z,34.40
2017-11-29T04:15:29.307Z,33.30
2017-11-29T04:17:56.827Z,37.80
2017-11-29T04:20:24.330Z,34.87
2017-11-29T04:22:51.799Z,37.33
2017-11-29T04:25:19.285Z,35.57
2017-11-29T04:27:46.768Z,37.17
2017-11-29T04:30:14.270Z,33.20
2017-11-29T04:32:42.528Z,38.10
2017-11-29T04:35:10.034Z,36.20
2017-11-29T04:37:38.396Z,36.80
2017-11-29T04:40:06.654Z,38.80
2017-11-29T04:42:34.903Z,33.33
2017-11-29T04:45:02.437Z,38.03
2017-11-29T04:47:30.038Z,37.67
2017-11-29T04:49:57.634Z,40.47
2017-11-29T04:52:26.638Z,42.10
2017-11-29T04:54:54.214Z,39.30
2017-11-29T04:57:21.952Z,36.00
2017-11-29T04:59:50.228Z,38.33
2017-11-29T05:02:18.488Z,33.37
2017-11-29T05:04:46.726Z,38.37
2017-11-29T05:07:14.248Z,35.93
2017-11-29T05:09:42.495Z,37.37
2017-11-29T05:12:09.973Z,36.90
2017-11-29T05:14:38.276Z,34.57
2017-11-29T05:17:05.804Z,36.87
2017-11-29T05:19:33.345Z,35.80
2017-11-29T05:22:00.820Z,36.87
2017-11-29T05:24:28.309Z,36.93
2017-11-29T05:26:55.832Z,34.17
2017-11-29T05:29:23.332Z,38.87
2017-11-29T05:31:50.845Z,36.87
2017-11-29T05:34:18.349Z,36.03
2017-11-29T05:36:46.683Z,33.77
2017-11-29T05:39:14.186Z,35.30
2017-11-29T05:41:42.424Z,34.97
2017-11-29T05:44:09.921Z,37.87
2017-11-29T05:46:37.419Z,36.53
2017-11-29T05:49:06.458Z,36.70
2017-11-29T05:51:34.193Z,34.83
2017-11-29T05:54:02.479Z,34.00
2017-11-29T05:56:30.250Z,39.17
2017-11-29T05:58:58.504Z,37.57
2017-11-29T06:01:26.038Z,37.07
2017-11-29T06:03:53.631Z,35.30
2017-11-29T06:06:22.620Z,36.50
2017-11-29T06:08:50.096Z,37.03
2017-11-29T06:11:17.578Z,38.00
2017-11-29T06:13:45.835Z,34.80
2017-11-29T06:16:14.096Z,36.53
2017-11-29T06:18:41.606Z,38.30
2017-11-29T06:21:09.089Z,40.00
2017-11-29T06:23:36.615Z,40.17
2017-11-29T06:26:04.105Z,40.63
2017-11-29T06:28:31.587Z,36.17
2017-11-29T06:30:59.112Z,41.10
2017-11-29T06:33:26.789Z,39.03
2017-11-29T06:35:54.281Z,41.60
2017-11-29T06:38:21.772Z,38.80
2017-11-29T06:40:49.253Z,37.00
2017-11-29T06:43:16.727Z,35.57
2017-11-29T06:45:44.206Z,32.77
2017-11-29T06:48:11.688Z,36.50
2017-11-29T06:50:39.942Z,36.97
2017-11-29T06:53:07.426Z,39.37
2017-11-29T06:55:35.943Z,38.43
2017-11-29T06:58:03.421Z,34.07
2017-11-29T07:00:30.909Z,37.23
2017-11-29T07:02:58.369Z,37.57
2017-11-29T07:05:25.840Z,37.10
2017-11-29T07:07:54.073Z,40.63
2017-11-29T07:10:21.560Z,39.10
2017-11-29T07:12:49.085Z,36.30
2017-11-29T07:15:16.684Z,38.43
2017-11-29T07:17:44.196Z,37.43
2017-11-29T07:20:11.668Z,36.53
2017-11-29T07:22:39.153Z,34.50
2017-11-29T07:25:06.660Z,31.40
2017-11-29T07:27:34.153Z,35.97
2017-11-29T07:30:01.680Z,35.33
2017-11-29T07:32:29.141Z,34.93
2017-11-29T07:34:56.671Z,36.93
2017-11-29T07:37:24.898Z,34.73
2017-11-29T07:39:52.386Z,33.60
2017-11-29T07:42:21.380Z,31.73
2017-11-29T07:44:48.853Z,32.47
2017-11-29T07:47:17.079Z,35.57
2017-11-29T07:49:44.563Z,33.00
2017-11-29T07:52:12.031Z,32.33
2017-11-29T07:54:39.532Z,31.70
2017-11-29T07:57:07.069Z,29.63
2017-11-29T07:59:35.327Z,31.63
2017-11-29T08:02:02.797Z,31.43
2017-11-29T08:04:31.313Z,27.97
2017-11-29T08:06:58.825Z,30.77
2017-11-29T08:09:26.284Z,24.77
2017-11-29T08:11:54.673Z,20.83
2017-11-29T08:14:22.128Z,19.17
2017-11-29T08:16:50.385Z,17.17
2017-11-29T08:19:17.848Z,16.50
2017-11-29T08:21:45.333Z,17.10
2017-11-29T08:24:13.588Z,15.07
2017-11-29T08:26:41.067Z,14.43
2017-11-29T08:29:09.298Z,15.33
2017-11-29T08:31:36.825Z,13.27
2017-11-29T08:34:04.388Z,13.03
2017-11-29T08:36:33.540Z,13.20
2017-11-29T08:39:01.428Z,13.80
2017-11-29T08:41:29.660Z,12.50
2017-11-29T08:43:57.216Z,13.37
2017-11-29T08:46:24.720Z,13.53
2017-11-29T08:48:53.140Z,13.67
2017-11-29T08:51:20.982Z,13.83
2017-11-29T08:53:49.257Z,13.37
2017-11-29T08:56:17.129Z,13.70
2017-11-29T08:58:45.529Z,11.70
2017-11-29T09:01:12.997Z,11.37
2017-11-29T09:03:40.473Z,12.13
2017-11-29T09:06:07.984Z,10.77
2017-11-29T09:08:35.577Z,11.70
2017-11-29T09:11:03.146Z,11.90
2017-11-29T09:13:30.669Z,11.53
2017-11-29T09:15:58.180Z,10.77
2017-11-29T09:18:25.665Z,10.60
2017-11-29T09:20:53.923Z,12.37
2017-11-29T09:23:21.432Z,10.97
2017-11-29T09:25:48.934Z,10.93
2017-11-29T09:28:16.542Z,11.00
2017-11-29T09:30:44.077Z,10.17
2017-11-29T09:33:12.353Z,11.00
2017-11-29T09:35:40.000Z,10.27
2017-11-29T09:38:07.613Z,8.60
2017-11-29T09:40:35.096Z,10.03
2017-11-29T09:43:02.588Z,11.63
2017-11-29T09:45:30.152Z,9.80
2017-11-29T09:47:57.986Z,8.70
2017-11-29T09:50:25.485Z,11.03
2017-11-29T09:52:53.756Z,10.43
2017-11-29T09:55:22.081Z,8.63
2017-11-29T09:57:49.565Z,8.77
2017-11-29T10:00:17.104Z,7.93
2017-11-29T10:02:44.656Z,7.70
2017-11-29T10:05:12.364Z,7.77
2017-11-29T10:07:39.860Z,8.23
2017-11-29T10:10:07.378Z,8.23
2017-11-29T10:12:35.138Z,7.00
2017-11-29T10:15:02.712Z,7.27
2017-11-29T10:17:30.354Z,8.30
2017-11-29T10:19:58.101Z,7.20
2017-11-29T10:22:25.583Z,6.03
2017-11-29T10:24:53.086Z,6.87
2017-11-29T10:27:21.385Z,7.63
2017-11-29T10:29:48.878Z,7.20
2017-11-29T10:32:16.345Z,7.20
2017-11-29T10:34:43.842Z,7.20
2017-11-29T10:37:12.160Z,6.67
2017-11-29T10:39:39.623Z,6.07
2017-11-29T10:42:07.255Z,7.37
2017-11-29T10:44:34.784Z,6.67
2017-11-29T10:47:03.284Z,6.50
2017-11-29T10:49:31.040Z,7.60
2017-11-29T10:51:59.309Z,6.97
2017-11-29T10:54:27.041Z,7.33
2017-11-29T10:56:54.724Z,5.80
2017-11-29T10:59:22.230Z,7.13
2017-11-29T11:01:49.949Z,7.80
2017-11-29T11:04:17.569Z,7.57
2017-11-29T11:06:45.166Z,7.33
2017-11-29T11:09:12.724Z,6.93
2017-11-29T11:11:40.214Z,7.60
2017-11-29T11:14:08.605Z,7.47
2017-11-29T11:16:36.106Z,7.83
2017-11-29T11:19:03.728Z,8.30
2017-11-29T11:21:31.230Z,8.63
2017-11-29T11:23:58.784Z,9.77
2017-11-29T11:26:26.388Z,8.80
2017-11-29T11:28:54.637Z,9.13
2017-11-29T11:31:22.131Z,10.57
2017-11-29T11:33:50.793Z,9.17
2017-11-29T11:36:18.807Z,8.97
2017-11-29T11:38:46.385Z,8.30
2017-11-29T11:41:14.044Z,9.70
2017-11-29T11:43:42.201Z,10.33
2017-11-29T11:46:09.717Z,9.07
2017-11-29T11:48:37.320Z,9.67
2017-11-29T11:51:05.081Z,8.97
2017-11-29T11:53:32.670Z,10.50
2017-11-29T11:56:00.149Z,11.93
2017-11-29T11:58:27.760Z,10.67
2017-11-29T12:00:56.127Z,9.60
2017-11-29T12:03:24.356Z,11.17
2017-11-29T12:05:52.008Z,11.80
2017-11-29T12:08:19.569Z,11.67
2017-11-29T12:10:47.134Z,10.30
2017-11-29T12:13:14.608Z,9.10
2017-11-29T12:15:42.117Z,10.20
2017-11-29T12:18:09.605Z,9.80
2017-11-29T12:20:37.235Z,9.27
2017-11-29T12:23:05.471Z,10.10
2017-11-29T12:25:32.965Z,10.30
2017-11-29T12:28:01.213Z,10.33
2017-11-29T12:30:28.712Z,10.57
2017-11-29T12:32:57.247Z,9.87
2017-11-29T12:35:24.710Z,10.23
2017-11-29T12:37:52.207Z,11.33
2017-11-29T12:40:20.442Z,11.47
2017-11-29T12:42:47.919Z,8.83
2017-11-29T12:45:15.395Z,8.00
2017-11-29T12:47:43.632Z,7.03
2017-11-29T12:50:22.881Z,8.03
2017-11-29T12:52:50.373Z,7.23
2017-11-29T12:55:18.635Z,7.23
2017-11-29T12:57:46.873Z,7.93
2017-11-29T13:00:14.384Z,6.80
2017-11-29T13:02:41.889Z,7.47
2017-11-29T13:05:09.382Z,6.80
2017-11-29T13:07:37.186Z,7.30
2017-11-29T13:10:04.664Z,8.47
2017-11-29T13:12:32.141Z,7.20
2017-11-29T13:14:59.606Z,7.77
2017-11-29T13:17:27.149Z,8.53
2017-11-29T13:19:54.632Z,8.73
2017-11-29T13:22:22.168Z,7.63
2017-11-29T13:24:49.880Z,6.20
2017-11-29T13:27:18.230Z,7.53
2017-11-29T13:29:45.725Z,7.97
2017-11-29T13:32:13.405Z,7.03
2017-11-29T13:34:41.143Z,6.23
2017-11-29T13:37:09.858Z,6.80
2017-11-29T13:39:37.520Z,6.50
2017-11-29T13:42:05.090Z,6.30
2017-11-29T13:44:32.585Z,6.50
2017-11-29T13:47:00.649Z,5.83
2017-11-29T13:49:28.233Z,7.00
2017-11-29T13:51:56.684Z,7.03
2017-11-29T13:54:24.264Z,8.13
2017-11-29T13:56:51.813Z,8.10
2017-11-29T13:59:19.312Z,7.70
2017-11-29T14:01:46.843Z,7.57
2017-11-29T14:04:14.505Z,7.27
2017-11-29T14:06:41.983Z,9.00
2017-11-29T14:09:10.346Z,7.60
2017-11-29T14:11:37.975Z,8.20
2017-11-29T14:14:05.826Z,9.23
2017-11-29T14:16:33.308Z,9.23
2017-11-29T14:19:00.805Z,9.17
2017-11-29T14:21:29.774Z,9.27
2017-11-29T14:23:58.164Z,8.67
2017-11-29T14:26:25.814Z,6.77
2017-11-29T14:28:53.330Z,7.57
2017-11-29T14:31:20.779Z,7.60
2017-11-29T14:33:48.239Z,9.30
2017-11-29T14:36:15.723Z,9.13
2017-11-29T14:38:43.205Z,8.10
2017-11-29T14:41:10.693Z,7.17
2017-11-29T14:43:39.476Z,8.87
2017-11-29T14:46:07.013Z,9.30
2017-11-29T14:48:34.499Z,10.80
2017-11-29T14:51:02.768Z,10.60
2017-11-29T14:53:31.348Z,10.83
2017-11-29T14:55:58.916Z,11.63
2017-11-29T14:58:27.376Z,12.83
2017-11-29T15:00:54.847Z,10.90
2017-11-29T15:03:22.334Z,10.67
2017-11-29T15:05:50.705Z,13.10
2017-11-29T15:08:19.059Z,11.90
2017-11-29T15:10:46.534Z,10.37
2017-11-29T15:13:14.001Z,11.20
2017-11-29T15:15:42.228Z,9.47
2017-11-29T15:18:09.737Z,11.23
2017-11-29T15:20:38.128Z,10.33
2017-11-29T15:23:06.362Z,11.80
2017-11-29T15:25:38.793Z,12.53
2017-11-29T15:28:06.276Z,11.43
2017-11-29T15:30:33.753Z,13.80
2017-11-29T15:33:01.432Z,10.20
2017-11-29T15:35:29.088Z,11.40
2017-11-29T15:37:56.600Z,13.90
2017-11-29T15:40:24.158Z,13.43
2017-11-29T15:42:51.713Z,12.73
2017-11-29T15:45:19.200Z,13.00
2017-11-29T15:47:46.675Z,12.70
2017-11-29T15:50:14.191Z,13.80
2017-11-29T15:52:41.745Z,12.13
2017-11-29T15:55:09.232Z,11.97
2017-11-29T15:57:36.705Z,12.33
2017-11-29T16:00:04.187Z,13.97
2017-11-29T16:02:31.647Z,12.83
2017-11-29T16:04:59.127Z,13.00
2017-11-29T16:07:27.367Z,12.87
2017-11-29T16:09:54.865Z,12.93
2017-11-29T16:12:23.096Z,16.00
2017-11-29T16:14:50.567Z,13.70
2017-11-29T16:17:18.047Z,13.60
2017-11-29T16:19:46.273Z,13.60
2017-11-29T16:22:13.736Z,16.30
2017-11-29T16:24:41.204Z,16.17
2017-11-29T16:27:08.680Z,17.40
2017-11-29T16:29:36.928Z,16.50
2017-11-29T16:32:04.485Z,15.00
2017-11-29T16:34:32.049Z,14.20
2017-11-29T16:36:59.540Z,15.50
2017-11-29T16:39:27.037Z,15.53
2017-11-29T16:41:54.532Z,14.10
2017-11-29T16:44:22.014Z,14.20
2017-11-29T16:46:49.473Z,15.27
2017-11-29T16:49:16.970Z,14.20
2017-11-29T16:51:44.467Z,15.30
2017-11-29T16:54:12.207Z,19.07
2017-11-29T16:56:39.682Z,14.17
2017-11-29T16:59:07.209Z,16.10
2017-11-29T17:01:34.684Z,15.70
2017-11-29T17:04:02.233Z,15.70
2017-11-29T17:06:29.732Z,14.80
2017-11-29T17:08:57.266Z,16.73
2017-11-29T17:11:24.847Z,17.73
2017-11-29T17:13:52.318Z,18.10
2017-11-29T17:16:19.800Z,16.70
2017-11-29T17:18:48.051Z,17.47
2017-11-29T17:21:15.561Z,15.97
2017-11-29T17:23:43.028Z,17.50
2017-11-29T17:26:10.493Z,15.83
2017-11-29T17:28:37.978Z,16.43
2017-11-29T17:31:05.573Z,17.97
2017-11-29T17:33:33.838Z,17.27
2017-11-29T17:36:01.324Z,18.17
2017-11-29T17:38:29.580Z,19.70
2017-11-29T17:40:57.052Z,18.33
2017-11-29T17:43:25.306Z,18.27
2017-11-29T17:45:52.809Z,18.00
2017-11-29T17:48:20.293Z,18.70
2017-11-29T17:50:47.758Z,19.33
2017-11-29T17:53:15.275Z,18.43
2017-11-29T17:55:43.669Z,19.70
2017-11-29T17:58:12.847Z,19.53
2017-11-29T18:00:43.704Z,18.17
2017-11-29T18:03:11.193Z,23.20
2017-11-29T18:05:39.904Z,23.33
2017-11-29T18:08:07.389Z,21.70
2017-11-29T18:10:34.946Z,24.60
2017-11-29T18:13:02.668Z,21.40
2017-11-29T18:15:30.167Z,20.00
2017-11-29T18:17:58.451Z,20.70
2017-11-29T18:20:26.704Z,21.63
2017-11-29T18:22:54.163Z,19.80
2017-11-29T18:25:21.642Z,19.77
2017-11-29T18:27:49.876Z,20.73
2017-11-29T18:30:17.351Z,20.40
2017-11-29T18:32:45.619Z,20.67
2017-11-29T18:35:13.151Z,21.00
2017-11-29T18:37:40.616Z,22.97
2017-11-29T18:40:08.522Z,22.50
2017-11-29T18:42:36.032Z,18.67
2017-11-29T18:45:03.775Z,21.60
2017-11-29T18:47:31.280Z,20.80
2017-11-29T18:49:58.773Z,19.10
2017-11-29T18:52:27.077Z,22.50
2017-11-29T18:54:54.569Z,24.30
2017-11-29T18:57:23.154Z,26.67
2017-11-29T18:59:50.649Z,27.03
2017-11-29T19:02:18.886Z,30.77
2017-11-29T19:04:46.372Z,25.80
2017-11-29T19:07:13.869Z,28.30
2017-11-29T19:09:41.531Z,26.20
2017-11-29T19:12:09.045Z,27.73
2017-11-29T19:14:36.575Z,30.00
2017-11-29T19:17:04.105Z,27.00
2017-11-29T19:19:32.492Z,26.00
2017-11-29T19:21:59.962Z,30.07
2017-11-29T19:24:27.507Z,27.63
2017-11-29T19:26:56.112Z,30.57
2017-11-29T19:29:23.620Z,27.67
2017-11-29T19:31:51.073Z,30.03
2017-11-29T19:34:18.541Z,28.87
2017-11-29T19:36:46.804Z,27.10
2017-11-29T19:39:14.277Z,28.00
2017-11-29T19:41:42.516Z,25.60
2017-11-29T19:44:10.019Z,29.10
2017-11-29T19:46:37.568Z,28.17
2017-11-29T19:49:05.085Z,32.23
2017-11-29T19:51:32.584Z,29.87
2017-11-29T19:54:00.823Z,28.63
2017-11-29T19:56:28.287Z,31.40
2017-11-29T19:58:56.507Z,29.70
2017-11-29T20:01:24.757Z,33.73
2017-11-29T20:03:53.379Z,29.73
2017-11-29T20:06:20.881Z,28.20
2017-11-29T20:08:48.607Z,28.80
2017-11-29T20:11:16.102Z,30.50
2017-11-29T20:13:45.859Z,32.43
2017-11-29T20:16:14.127Z,31.27
2017-11-29T20:18:42.389Z,32.47
2017-11-29T20:21:10.171Z,31.10
2017-11-29T20:23:39.156Z,31.20
2017-11-29T20:26:07.473Z,29.57
2017-11-29T20:28:36.821Z,27.50
2017-11-29T20:31:05.522Z,29.33
2017-11-29T20:33:33.896Z,31.00
2017-11-29T20:36:02.026Z,32.43
2017-11-29T20:38:30.148Z,29.60
2017-11-29T20:40:57.700Z,28.03
2017-11-29T20:43:25.299Z,31.33
2017-11-29T20:45:53.045Z,32.83
2017-11-29T20:48:21.424Z,30.10
2017-11-29T20:50:49.148Z,31.60
2017-11-29T20:53:16.750Z,29.33
2017-11-29T20:55:45.132Z,29.10
2017-11-29T20:58:13.397Z,29.33
2017-11-29T21:00:41.016Z,29.90
2017-11-29T21:03:08.525Z,32.30
2017-11-29T21:05:36.840Z,31.83
2017-11-29T21:08:04.318Z,32.40
2017-11-29T21:10:31.977Z,28.43
2017-11-29T21:12:59.457Z,31.97
2017-11-29T21:15:27.748Z,31.57
2017-11-29T21:17:56.034Z,34.10
2017-11-29T21:20:24.277Z,33.57
2017-11-29T21:22:51.756Z,31.37
2017-11-29T21:25:20.977Z,34.00
2017-11-29T21:27:48.493Z,31.80
2017-11-29T21:30:15.977Z,31.40
2017-11-29T21:32:44.271Z,32.67
2017-11-29T21:35:12.573Z,31.87
2017-11-29T21:37:40.367Z,32.63
2017-11-29T21:40:07.850Z,31.93
2017-11-29T21:42:36.318Z,33.23
2017-11-29T21:45:03.823Z,36.47
2017-11-29T21:47:32.077Z,30.30
2017-11-29T21:49:59.553Z,34.27
2017-11-29T21:52:27.805Z,33.13
2017-11-29T21:54:55.317Z,32.00
2017-11-29T21:57:22.780Z,32.07
2017-11-29T21:59:50.349Z,35.97
2017-11-29T22:02:17.852Z,36.07
2017-11-29T22:04:45.358Z,35.97
2017-11-29T22:07:12.869Z,40.27
2017-11-29T22:09:40.441Z,40.20
2017-11-29T22:12:08.678Z,41.70
2017-11-29T22:14:36.166Z,43.00
2017-11-29T22:17:04.447Z,43.20
2017-11-29T22:19:32.676Z,42.73
2017-11-29T22:22:00.158Z,40.77
2017-11-29T22:24:27.687Z,49.23
2017-11-29T22:26:55.156Z,43.87
2017-11-29T22:29:22.642Z,53.07
2017-11-29T22:31:50.114Z,48.77
2017-11-29T22:34:18.397Z,43.53
2017-11-29T22:36:46.625Z,43.07
2017-11-29T22:39:14.134Z,44.90
2017-11-29T22:41:42.379Z,39.70
2017-11-29T22:44:09.861Z,39.47
2017-11-29T22:46:38.096Z,37.30
2017-11-29T22:49:05.599Z,36.70
2017-11-29T22:51:33.857Z,37.43
2017-11-29T22:54:01.352Z,38.30
2017-11-29T22:56:28.898Z,35.30
2017-11-29T22:58:57.156Z,35.53
2017-11-29T23:01:24.650Z,34.60
2017-11-29T23:03:52.153Z,33.67
2017-11-29T23:06:19.637Z,35.27
2017-11-29T23:08:47.137Z,34.70
2017-11-29T23:11:14.605Z,36.13
2017-11-29T23:13:42.057Z,37.57
2017-11-29T23:16:09.536Z,33.80
2017-11-29T23:18:37.036Z,37.07
2017-11-29T23:21:05.295Z,32.57
2017-11-29T23:23:32.811Z,31.17
2017-11-29T23:26:00.295Z,31.77
2017-11-29T23:28:27.772Z,31.50
2017-11-29T23:30:56.752Z,33.97
2017-11-29T23:33:24.236Z,34.60
2017-11-29T23:35:51.917Z,32.67
2017-11-29T23:38:20.180Z,37.27
2017-11-29T23:40:48.422Z,34.77
2017-11-29T23:43:15.897Z,36.60
2017-11-29T23:45:43.366Z,32.83
2017-11-29T23:48:10.852Z,34.77
2017-11-29T23:50:38.376Z,35.20
2017-11-29T23:53:05.845Z,33.73
2017-11-29T23:55:34.100Z,33.90
2017-11-29T23:58:01.577Z,36.73
